createdAt,value
2018-02-23T00:00:55.354Z,16.50
2018-02-23T00:01:55.310Z,17.30
2018-02-23T00:02:55.281Z,15.80
2018-02-23T00:03:55.241Z,17.20
2018-02-23T00:04:55.207Z,17.30
2018-02-23T00:05:55.166Z,15.80
2018-02-23T00:06:55.101Z,17.50
2018-02-23T00:07:55.055Z,17.00
2018-02-23T00:08:55.020Z,16.80
2018-02-23T00:09:54.991Z,16.20
2018-02-23T00:10:54.947Z,17.90
2018-02-23T00:11:54.891Z,17.00
2018-02-23T00:12:54.892Z,16.60
2018-02-23T00:13:54.804Z,16.70
2018-02-23T00:14:54.759Z,16.70
2018-02-23T00:15:54.733Z,17.00
2018-02-23T00:16:54.713Z,17.30
2018-02-23T00:17:54.634Z,17.50
2018-02-23T00:18:54.588Z,17.50
2018-02-23T00:19:54.560Z,18.50
2018-02-23T00:20:54.509Z,19.50
2018-02-23T00:21:54.471Z,19.60
2018-02-23T00:22:54.431Z,20.00
2018-02-23T00:23:54.388Z,17.70
2018-02-23T00:24:54.363Z,17.30
2018-02-23T00:25:54.302Z,16.20
2018-02-23T00:26:54.249Z,16.00
2018-02-23T00:27:54.209Z,15.50
2018-02-23T00:28:54.168Z,15.50
2018-02-23T00:29:54.123Z,16.50
2018-02-23T00:30:54.090Z,15.80
2018-02-23T00:31:54.051Z,16.40
2018-02-23T00:32:53.993Z,15.30
2018-02-23T00:33:53.950Z,14.90
2018-02-23T00:34:53.910Z,16.10
2018-02-23T00:35:53.874Z,14.40
2018-02-23T00:36:53.834Z,15.50
2018-02-23T00:37:53.781Z,14.70
2018-02-23T00:38:53.742Z,14.30
2018-02-23T00:39:53.700Z,13.30
2018-02-23T00:40:53.656Z,14.00
2018-02-23T00:41:53.611Z,14.20
2018-02-23T00:42:53.583Z,14.00
2018-02-23T00:43:53.539Z,14.60
2018-02-23T00:44:53.486Z,14.10
2018-02-23T00:45:53.441Z,15.80
2018-02-23T00:46:53.401Z,14.60
2018-02-23T00:47:53.364Z,14.10
2018-02-23T00:48:53.311Z,14.70
2018-02-23T00:49:53.279Z,14.00
2018-02-23T00:50:53.229Z,14.70
2018-02-23T00:51:53.191Z,13.90
2018-02-23T00:52:53.143Z,14.40
2018-02-23T00:53:53.099Z,13.70
2018-02-23T00:54:53.057Z,13.10
2018-02-23T00:55:53.014Z,16.10
2018-02-23T00:56:52.972Z,14.90
2018-02-23T00:57:52.927Z,14.40
2018-02-23T00:58:52.904Z,14.70
2018-02-23T00:59:52.847Z,15.40
2018-02-23T01:00:52.803Z,14.90
2018-02-23T01:01:52.775Z,13.80
2018-02-23T01:02:52.715Z,15.30
2018-02-23T01:03:52.700Z,14.30
2018-02-23T01:04:52.630Z,15.50
2018-02-23T01:05:52.588Z,14.80
2018-02-23T01:06:52.545Z,14.80
2018-02-23T01:07:52.512Z,14.20
2018-02-23T01:08:52.460Z,13.60
2018-02-23T01:09:52.461Z,13.50
2018-02-23T01:10:52.373Z,13.30
2018-02-23T01:11:52.351Z,13.30
2018-02-23T01:12:52.291Z,12.60
2018-02-23T01:13:52.248Z,13.60
2018-02-23T01:14:52.214Z,13.80
2018-02-23T01:15:52.176Z,14.00
2018-02-23T01:16:52.127Z,13.60
2018-02-23T01:17:52.098Z,13.90
2018-02-23T01:18:52.033Z,14.00
2018-02-23T01:19:51.995Z,15.00
2018-02-23T01:20:51.955Z,14.50
2018-02-23T01:21:51.906Z,14.60
2018-02-23T01:22:51.864Z,13.60
2018-02-23T01:23:51.821Z,14.80
2018-02-23T01:24:51.778Z,14.40
2018-02-23T01:25:51.735Z,13.40
2018-02-23T01:26:51.693Z,13.70
2018-02-23T01:27:51.654Z,14.40
2018-02-23T01:28:51.612Z,13.20
2018-02-23T01:29:51.612Z,13.70
2018-02-23T01:30:51.523Z,13.20
2018-02-23T01:31:51.487Z,13.10
2018-02-23T01:32:51.445Z,14.00
2018-02-23T01:33:51.408Z,14.30
2018-02-23T01:34:51.359Z,14.50
2018-02-23T01:35:51.330Z,14.20
2018-02-23T01:36:51.266Z,13.90
2018-02-23T01:37:51.229Z,13.90
2018-02-23T01:38:51.181Z,14.30
2018-02-23T01:39:51.140Z,14.80
2018-02-23T01:40:51.096Z,14.10
2018-02-23T01:41:51.079Z,14.80
2018-02-23T01:42:51.011Z,13.70
2018-02-23T01:43:50.969Z,14.60
2018-02-23T01:44:50.931Z,13.30
2018-02-23T01:45:50.934Z,13.60
2018-02-23T01:46:50.840Z,13.70
2018-02-23T01:47:50.829Z,13.00
2018-02-23T01:48:50.754Z,13.10
2018-02-23T01:49:50.788Z,13.70
2018-02-23T01:50:50.677Z,13.40
2018-02-23T01:51:50.632Z,12.80
2018-02-23T01:52:50.589Z,13.40
2018-02-23T01:53:50.547Z,12.70
2018-02-23T01:54:50.523Z,14.10
2018-02-23T01:55:50.462Z,13.60
2018-02-23T01:56:50.417Z,13.10
2018-02-23T01:57:50.383Z,13.80
2018-02-23T01:58:50.336Z,15.10
2018-02-23T01:59:50.296Z,13.70
2018-02-23T02:00:50.244Z,13.00
2018-02-23T02:01:50.214Z,13.90
2018-02-23T02:02:50.163Z,13.30
2018-02-23T02:03:50.122Z,14.70
2018-02-23T02:04:50.085Z,14.40
2018-02-23T02:05:50.030Z,14.00
2018-02-23T02:06:50.007Z,14.90
2018-02-23T02:07:49.954Z,15.30
2018-02-23T02:08:49.905Z,15.00
2018-02-23T02:09:49.862Z,14.90
2018-02-23T02:10:49.821Z,14.60
2018-02-23T02:11:49.775Z,15.10
2018-02-23T02:12:49.739Z,15.40
2018-02-23T02:13:49.702Z,15.30
2018-02-23T02:14:49.649Z,14.80
2018-02-23T02:15:49.662Z,15.50
2018-02-23T02:16:49.568Z,15.80
2018-02-23T02:17:49.524Z,15.10
2018-02-23T02:18:49.488Z,15.30
2018-02-23T02:19:49.437Z,16.50
2018-02-23T02:20:49.395Z,16.10
2018-02-23T02:21:49.358Z,16.30
2018-02-23T02:22:49.312Z,16.80
2018-02-23T02:23:49.264Z,15.90
2018-02-23T02:24:49.228Z,16.30
2018-02-23T02:25:49.182Z,16.60
2018-02-23T02:26:49.136Z,16.10
2018-02-23T02:27:49.109Z,17.00
2018-02-23T02:28:49.048Z,16.30
2018-02-23T02:29:49.019Z,16.60
2018-02-23T02:30:48.965Z,17.60
2018-02-23T02:31:48.922Z,17.40
2018-02-23T02:32:48.876Z,16.90
2018-02-23T02:33:48.871Z,16.20
2018-02-23T02:34:48.822Z,17.20
2018-02-23T02:35:48.757Z,16.30
2018-02-23T02:36:48.707Z,16.70
2018-02-23T02:37:48.697Z,17.20
2018-02-23T02:38:48.626Z,17.90
2018-02-23T02:39:48.615Z,17.70
2018-02-23T02:40:48.539Z,18.70
2018-02-23T02:41:48.527Z,19.60
2018-02-23T02:42:48.462Z,19.10
2018-02-23T02:43:48.411Z,19.20
2018-02-23T02:44:48.369Z,20.00
2018-02-23T02:45:48.331Z,20.30
2018-02-23T02:46:48.287Z,20.40
2018-02-23T02:47:48.250Z,20.30
2018-02-23T02:48:48.193Z,21.60
2018-02-23T02:49:48.150Z,22.00
2018-02-23T02:50:48.109Z,21.30
2018-02-23T02:51:48.098Z,22.50
2018-02-23T02:52:48.043Z,22.00
2018-02-23T02:53:48.012Z,22.80
2018-02-23T02:54:47.973Z,24.00
2018-02-23T02:55:47.913Z,22.20
2018-02-23T02:56:47.851Z,22.70
2018-02-23T02:57:47.811Z,24.00
2018-02-23T02:58:47.766Z,23.70
2018-02-23T02:59:47.723Z,24.20
2018-02-23T03:00:47.680Z,24.50
2018-02-23T03:01:47.637Z,25.00
2018-02-23T03:02:47.594Z,23.60
2018-02-23T03:03:47.564Z,23.30
2018-02-23T03:04:47.506Z,25.50
2018-02-23T03:05:47.465Z,23.10
2018-02-23T03:06:47.420Z,23.80
2018-02-23T03:07:47.385Z,23.00
2018-02-23T03:08:47.335Z,24.80
2018-02-23T03:09:47.294Z,23.30
2018-02-23T03:10:47.255Z,23.70
2018-02-23T03:11:47.208Z,23.60
2018-02-23T03:12:47.178Z,24.20
2018-02-23T03:13:47.126Z,25.30
2018-02-23T03:14:47.098Z,24.80
2018-02-23T03:15:47.052Z,25.00
2018-02-23T03:16:46.992Z,24.00
2018-02-23T03:17:46.949Z,24.50
2018-02-23T03:18:46.907Z,25.70
2018-02-23T03:19:46.865Z,24.10
2018-02-23T03:20:46.822Z,26.10
2018-02-23T03:21:46.781Z,25.20
2018-02-23T03:22:46.737Z,24.80
2018-02-23T03:23:46.714Z,25.40
2018-02-23T03:24:46.658Z,26.30
2018-02-23T03:25:46.640Z,24.90
2018-02-23T03:26:46.594Z,25.50
2018-02-23T03:27:46.534Z,24.60
2018-02-23T03:28:46.480Z,26.00
2018-02-23T03:29:46.442Z,26.30
2018-02-23T03:30:46.394Z,26.60
2018-02-23T03:31:46.355Z,25.80
2018-02-23T03:32:46.315Z,23.00
2018-02-23T03:33:46.290Z,23.80
2018-02-23T03:34:46.245Z,23.80
2018-02-23T03:35:46.185Z,24.50
2018-02-23T03:36:46.139Z,24.70
2018-02-23T03:37:46.105Z,25.80
2018-02-23T03:38:46.113Z,24.30
2018-02-23T03:39:46.024Z,24.60
2018-02-23T03:40:45.986Z,26.00
2018-02-23T03:41:45.955Z,25.60
2018-02-23T03:42:45.884Z,25.10
2018-02-23T03:43:45.840Z,25.00
2018-02-23T03:44:45.797Z,26.00
2018-02-23T03:45:45.752Z,24.90
2018-02-23T03:46:45.723Z,25.50
2018-02-23T03:47:45.665Z,26.10
2018-02-23T03:48:45.660Z,25.20
2018-02-23T03:49:45.580Z,25.40
2018-02-23T03:50:45.536Z,24.40
2018-02-23T03:51:45.510Z,24.10
2018-02-23T03:52:45.453Z,24.10
2018-02-23T03:53:45.409Z,24.30
2018-02-23T03:54:45.383Z,25.70
2018-02-23T03:55:45.856Z,24.30
2018-02-23T03:56:45.282Z,25.50
2018-02-23T03:57:45.246Z,24.10
2018-02-23T03:58:45.206Z,24.90
2018-02-23T03:59:45.153Z,23.80
2018-02-23T04:00:45.108Z,24.80
2018-02-23T04:01:45.480Z,24.70
2018-02-23T04:02:45.021Z,25.40
2018-02-23T04:03:44.982Z,23.80
2018-02-23T04:04:44.938Z,24.40
2018-02-23T04:05:44.894Z,23.70
2018-02-23T04:06:44.874Z,24.60
2018-02-23T04:07:44.807Z,25.40
2018-02-23T04:08:44.764Z,24.20
2018-02-23T04:09:44.740Z,24.90
2018-02-23T04:10:44.681Z,25.40
2018-02-23T04:11:44.676Z,25.00
2018-02-23T04:12:44.597Z,24.00
2018-02-23T04:13:44.552Z,24.40
2018-02-23T04:14:44.511Z,24.30
2018-02-23T04:15:44.467Z,23.00
2018-02-23T04:16:44.419Z,23.60
2018-02-23T04:17:44.386Z,23.00
2018-02-23T04:18:44.356Z,24.10
2018-02-23T04:19:44.336Z,24.80
2018-02-23T04:20:44.275Z,25.20
2018-02-23T04:21:44.206Z,25.20
2018-02-23T04:22:44.162Z,23.70
2018-02-23T04:23:44.151Z,24.40
2018-02-23T04:24:44.080Z,25.60
2018-02-23T04:25:44.037Z,24.90
2018-02-23T04:26:44.015Z,23.60
2018-02-23T04:27:43.951Z,24.40
2018-02-23T04:28:43.927Z,24.50
2018-02-23T04:29:43.863Z,23.80
2018-02-23T04:30:43.829Z,24.10
2018-02-23T04:31:43.812Z,25.20
2018-02-23T04:32:43.735Z,23.90
2018-02-23T04:33:43.711Z,25.10
2018-02-23T04:34:43.685Z,23.20
2018-02-23T04:35:43.623Z,22.30
2018-02-23T04:36:43.598Z,23.60
2018-02-23T04:37:43.550Z,23.30
2018-02-23T04:38:43.480Z,22.90
2018-02-23T04:39:43.445Z,22.70
2018-02-23T04:40:43.391Z,23.90
2018-02-23T04:41:43.346Z,23.60
2018-02-23T04:42:43.334Z,22.70
2018-02-23T04:43:43.267Z,22.40
2018-02-23T04:44:43.269Z,23.60
2018-02-23T04:45:43.191Z,22.50
2018-02-23T04:46:43.173Z,22.90
2018-02-23T04:47:43.147Z,23.90
2018-02-23T04:48:43.060Z,23.80
2018-02-23T04:49:43.006Z,23.70
2018-02-23T04:50:42.966Z,23.50
2018-02-23T04:51:42.919Z,23.70
2018-02-23T04:52:43.047Z,22.90
2018-02-23T04:53:42.833Z,24.20
2018-02-23T04:54:42.790Z,23.80
2018-02-23T04:55:42.747Z,22.60
2018-02-23T04:56:42.710Z,23.20
2018-02-23T04:57:42.688Z,23.40
2018-02-23T04:58:43.025Z,21.70
2018-02-23T04:59:42.600Z,24.40
2018-02-23T05:00:42.562Z,23.80
2018-02-23T05:01:42.492Z,24.00
2018-02-23T05:02:42.447Z,24.50
2018-02-23T05:03:42.443Z,23.70
2018-02-23T05:04:42.360Z,23.50
2018-02-23T05:05:42.346Z,23.00
2018-02-23T05:06:42.274Z,23.00
2018-02-23T05:07:42.235Z,23.40
2018-02-23T05:08:42.193Z,21.90
2018-02-23T05:09:42.159Z,22.30
2018-02-23T05:10:42.110Z,22.60
2018-02-23T05:11:42.096Z,22.00
2018-02-23T05:12:42.053Z,23.50
2018-02-23T05:13:41.973Z,23.00
2018-02-23T05:14:41.935Z,21.90
2018-02-23T05:15:41.896Z,22.10
2018-02-23T05:16:41.850Z,21.90
2018-02-23T05:17:41.815Z,22.40
2018-02-23T05:18:41.773Z,20.80
2018-02-23T05:19:41.717Z,22.30
2018-02-23T05:20:41.674Z,22.50
2018-02-23T05:21:41.645Z,21.20
2018-02-23T05:22:41.590Z,22.10
2018-02-23T05:23:41.559Z,21.20
2018-02-23T05:24:41.517Z,20.80
2018-02-23T05:25:41.488Z,20.90
2018-02-23T05:26:41.418Z,19.90
2018-02-23T05:27:41.375Z,20.80
2018-02-23T05:28:41.328Z,20.60
2018-02-23T05:29:41.306Z,20.70
2018-02-23T05:30:41.242Z,20.80
2018-02-23T05:31:41.199Z,20.70
2018-02-23T05:32:41.158Z,20.30
2018-02-23T05:33:41.115Z,20.80
2018-02-23T05:34:41.074Z,19.60
2018-02-23T05:35:41.045Z,20.00
2018-02-23T05:36:40.987Z,20.60
2018-02-23T05:37:40.956Z,19.00
2018-02-23T05:38:40.903Z,19.50
2018-02-23T05:39:40.874Z,19.70
2018-02-23T05:40:40.814Z,21.00
2018-02-23T05:41:40.777Z,19.60
2018-02-23T05:42:40.727Z,20.60
2018-02-23T05:43:40.715Z,19.00
2018-02-23T05:44:40.643Z,19.20
2018-02-23T05:45:40.600Z,18.90
2018-02-23T05:46:40.561Z,18.30
2018-02-23T05:47:40.529Z,19.70
2018-02-23T05:48:40.512Z,19.60
2018-02-23T05:49:40.441Z,18.50
2018-02-23T05:50:40.386Z,19.80
2018-02-23T05:51:40.351Z,19.40
2018-02-23T05:52:40.329Z,18.40
2018-02-23T05:53:40.256Z,19.00
2018-02-23T05:54:40.216Z,19.40
2018-02-23T05:55:40.186Z,18.80
2018-02-23T05:56:40.134Z,19.20
2018-02-23T05:57:40.084Z,19.80
2018-02-23T05:58:40.050Z,19.30
2018-02-23T05:59:39.999Z,17.10
2018-02-23T06:00:39.969Z,18.20
2018-02-23T06:01:39.913Z,17.50
2018-02-23T06:02:39.913Z,18.80
2018-02-23T06:03:39.883Z,19.00
2018-02-23T06:04:39.795Z,18.00
2018-02-23T06:05:39.744Z,17.60
2018-02-23T06:06:39.698Z,18.70
2018-02-23T06:07:39.659Z,19.60
2018-02-23T06:08:39.647Z,17.90
2018-02-23T06:09:39.571Z,18.00
2018-02-23T06:10:39.526Z,19.20
2018-02-23T06:11:39.485Z,19.30
2018-02-23T06:12:39.439Z,18.70
2018-02-23T06:13:39.399Z,18.70
2018-02-23T06:14:39.354Z,17.90
2018-02-23T06:15:39.311Z,18.90
2018-02-23T06:16:39.279Z,18.10
2018-02-23T06:17:39.224Z,18.30
2018-02-23T06:18:39.181Z,18.50
2018-02-23T06:19:39.141Z,18.50
2018-02-23T06:20:39.097Z,18.80
2018-02-23T06:21:39.052Z,18.90
2018-02-23T06:22:39.050Z,18.80
2018-02-23T06:23:38.973Z,17.90
2018-02-23T06:24:38.925Z,19.80
2018-02-23T06:25:38.882Z,18.50
2018-02-23T06:26:38.851Z,17.90
2018-02-23T06:27:38.796Z,17.60
2018-02-23T06:28:38.751Z,18.00
2018-02-23T06:29:38.721Z,19.10
2018-02-23T06:30:38.669Z,17.40
2018-02-23T06:31:38.625Z,17.90
2018-02-23T06:32:38.580Z,17.90
2018-02-23T06:33:38.547Z,18.00
2018-02-23T06:34:38.499Z,18.10
2018-02-23T06:35:38.451Z,18.10
2018-02-23T06:36:38.410Z,17.90
2018-02-23T06:37:38.366Z,17.10
2018-02-23T06:38:38.325Z,17.70
2018-02-23T06:39:38.280Z,18.60
2018-02-23T06:40:38.237Z,17.90
2018-02-23T06:41:38.198Z,18.20
2018-02-23T06:42:38.151Z,18.60
2018-02-23T06:43:38.123Z,17.70
2018-02-23T06:44:38.068Z,17.30
2018-02-23T06:45:38.026Z,19.20
2018-02-23T06:46:37.980Z,18.30
2018-02-23T06:47:37.945Z,18.00
2018-02-23T06:48:37.895Z,18.90
2018-02-23T06:49:37.853Z,18.30
2018-02-23T06:50:37.810Z,17.40
2018-02-23T06:51:37.776Z,18.50
2018-02-23T06:52:37.724Z,18.20
2018-02-23T06:53:37.680Z,18.30
2018-02-23T06:54:37.639Z,17.70
2018-02-23T06:55:37.600Z,17.50
2018-02-23T06:56:37.552Z,18.20
2018-02-23T06:57:37.512Z,17.30
2018-02-23T06:58:37.471Z,17.00
2018-02-23T06:59:37.437Z,17.40
2018-02-23T07:00:37.384Z,17.10
2018-02-23T07:01:37.346Z,17.00
2018-02-23T07:02:37.302Z,16.90
2018-02-23T07:03:37.259Z,17.00
2018-02-23T07:04:37.216Z,16.60
2018-02-23T07:05:37.177Z,17.00
2018-02-23T07:06:37.134Z,17.20
2018-02-23T07:07:37.103Z,17.10
2018-02-23T07:08:37.051Z,17.30
2018-02-23T07:09:37.007Z,18.00
2018-02-23T07:10:36.969Z,17.10
2018-02-23T07:11:36.926Z,17.50
2018-02-23T07:12:36.884Z,17.00
2018-02-23T07:13:36.844Z,17.30
2018-02-23T07:14:36.814Z,16.50
2018-02-23T07:15:36.760Z,16.70
2018-02-23T07:16:36.721Z,16.30
2018-02-23T07:17:36.678Z,17.20
2018-02-23T07:18:36.639Z,16.80
2018-02-23T07:19:36.604Z,17.40
2018-02-23T07:20:36.579Z,16.30
2018-02-23T07:21:36.518Z,16.90
2018-02-23T07:22:36.481Z,15.40
2018-02-23T07:23:36.440Z,16.20
2018-02-23T07:24:36.399Z,15.80
2018-02-23T07:25:36.360Z,16.40
2018-02-23T07:26:36.319Z,17.40
2018-02-23T07:27:36.282Z,16.90
2018-02-23T07:28:36.240Z,15.60
2018-02-23T07:29:36.204Z,17.70
2018-02-23T07:30:36.162Z,15.90
2018-02-23T07:31:36.127Z,16.80
2018-02-23T07:32:36.086Z,17.10
2018-02-23T07:33:36.051Z,15.80
2018-02-23T07:34:36.017Z,16.70
2018-02-23T07:35:35.969Z,16.60
2018-02-23T07:36:35.929Z,16.90
2018-02-23T07:37:35.892Z,16.60
2018-02-23T07:38:35.855Z,17.00
2018-02-23T07:39:35.816Z,16.10
2018-02-23T07:40:35.777Z,16.50
2018-02-23T07:41:35.739Z,16.10
2018-02-23T07:42:35.762Z,16.60
2018-02-23T07:43:35.664Z,16.10
2018-02-23T07:44:35.629Z,16.00
2018-02-23T07:45:35.593Z,15.80
2018-02-23T07:46:35.553Z,16.80
2018-02-23T07:47:35.518Z,15.80
2018-02-23T07:48:35.483Z,16.50
2018-02-23T07:49:35.446Z,14.80
2018-02-23T07:50:35.408Z,16.30
2018-02-23T07:51:35.371Z,15.40
2018-02-23T07:52:35.335Z,16.30
2018-02-23T07:53:35.307Z,14.60
2018-02-23T07:54:35.264Z,14.60
2018-02-23T07:55:35.228Z,14.90
2018-02-23T07:56:35.192Z,14.40
2018-02-23T07:57:35.160Z,13.40
2018-02-23T07:58:35.122Z,12.30
2018-02-23T07:59:35.085Z,13.20
2018-02-23T08:00:35.052Z,12.90
2018-02-23T08:01:35.015Z,13.20
2018-02-23T08:02:34.981Z,13.00
2018-02-23T08:03:34.959Z,13.50
2018-02-23T08:04:34.956Z,13.80
2018-02-23T08:05:34.877Z,13.50
2018-02-23T08:06:34.841Z,11.90
2018-02-23T08:07:34.807Z,12.80
2018-02-23T08:08:34.775Z,13.00
2018-02-23T08:09:34.736Z,12.30
2018-02-23T08:10:34.702Z,11.60
2018-02-23T08:11:34.669Z,12.90
2018-02-23T08:12:34.634Z,11.70
2018-02-23T08:13:34.608Z,10.90
2018-02-23T08:14:34.566Z,11.00
2018-02-23T08:15:34.545Z,10.00
2018-02-23T08:16:34.498Z,9.60
2018-02-23T08:17:34.477Z,9.70
2018-02-23T08:18:34.432Z,10.30
2018-02-23T08:19:34.398Z,9.80
2018-02-23T08:20:34.365Z,9.30
2018-02-23T08:21:34.330Z,9.90
2018-02-23T08:22:34.299Z,8.40
2018-02-23T08:23:34.281Z,8.90
2018-02-23T08:24:34.231Z,8.10
2018-02-23T08:25:34.198Z,8.80
2018-02-23T08:26:34.166Z,8.30
2018-02-23T08:27:34.135Z,8.50
2018-02-23T08:28:34.102Z,9.30
2018-02-23T08:29:34.073Z,9.00
2018-02-23T08:30:34.036Z,8.50
2018-02-23T08:31:34.006Z,8.90
2018-02-23T08:32:33.973Z,8.70
2018-02-23T08:33:33.951Z,7.90
2018-02-23T08:34:33.907Z,8.00
2018-02-23T08:35:33.872Z,7.70
2018-02-23T08:36:33.841Z,6.80
2018-02-23T08:37:33.812Z,7.80
2018-02-23T08:38:33.780Z,6.60
2018-02-23T08:39:33.747Z,6.80
2018-02-23T08:40:33.725Z,7.00
2018-02-23T08:41:33.690Z,7.00
2018-02-23T08:42:33.655Z,6.60
2018-02-23T08:43:33.620Z,7.30
2018-02-23T08:44:33.588Z,7.00
2018-02-23T08:45:33.556Z,6.70
2018-02-23T08:46:33.524Z,7.20
2018-02-23T08:47:33.492Z,6.80
2018-02-23T08:48:33.470Z,7.00
2018-02-23T08:49:33.431Z,6.50
2018-02-23T08:50:33.398Z,6.70
2018-02-23T08:51:33.368Z,7.00
2018-02-23T08:52:33.346Z,7.10
2018-02-23T08:53:33.304Z,6.20
2018-02-23T08:54:33.274Z,6.50
2018-02-23T08:55:33.243Z,6.60
2018-02-23T08:56:33.209Z,7.00
2018-02-23T08:57:33.180Z,6.10
2018-02-23T08:58:33.153Z,6.20
2018-02-23T08:59:33.118Z,6.70
2018-02-23T09:00:33.085Z,6.70
2018-02-23T09:01:33.051Z,6.40
2018-02-23T09:02:33.021Z,6.80
2018-02-23T09:03:32.989Z,7.20
2018-02-23T09:04:32.960Z,6.30
2018-02-23T09:05:32.927Z,7.30
2018-02-23T09:06:32.919Z,7.10
2018-02-23T09:07:32.865Z,6.60
2018-02-23T09:08:32.834Z,6.80
2018-02-23T09:09:32.804Z,7.00
2018-02-23T09:10:32.772Z,7.40
2018-02-23T09:11:32.741Z,6.40
2018-02-23T09:12:32.711Z,7.10
2018-02-23T09:13:32.678Z,6.90
2018-02-23T09:14:32.649Z,7.40
2018-02-23T09:15:32.633Z,7.50
2018-02-23T09:16:32.587Z,7.40
2018-02-23T09:17:32.556Z,7.20
2018-02-23T09:18:32.527Z,7.90
2018-02-23T09:19:32.500Z,7.70
2018-02-23T09:20:32.465Z,7.30
2018-02-23T09:21:32.469Z,8.20
2018-02-23T09:22:32.407Z,7.50
2018-02-23T09:23:32.386Z,7.60
2018-02-23T09:24:32.349Z,7.70
2018-02-23T09:25:32.321Z,7.60
2018-02-23T09:26:32.290Z,7.50
2018-02-23T09:27:32.258Z,7.40
2018-02-23T09:28:32.229Z,7.30
2018-02-23T09:29:32.198Z,8.00
2018-02-23T09:30:32.173Z,7.60
2018-02-23T09:31:32.148Z,7.00
2018-02-23T09:32:32.118Z,7.00
2018-02-23T09:33:32.080Z,7.10
2018-02-23T09:34:32.065Z,7.00
2018-02-23T09:35:32.026Z,7.20
2018-02-23T09:36:31.993Z,8.10
2018-02-23T09:37:31.966Z,7.60
2018-02-23T09:38:31.938Z,7.30
2018-02-23T09:39:31.910Z,7.20
2018-02-23T09:40:31.878Z,7.10
2018-02-23T09:41:31.864Z,6.60
2018-02-23T09:42:31.820Z,7.20
2018-02-23T09:43:31.805Z,6.90
2018-02-23T09:44:31.759Z,7.50
2018-02-23T09:45:31.733Z,6.70
2018-02-23T09:46:31.703Z,7.30
2018-02-23T09:47:31.674Z,7.30
2018-02-23T09:48:31.646Z,6.40
2018-02-23T09:49:31.615Z,6.70
2018-02-23T09:50:31.594Z,7.10
2018-02-23T09:51:31.560Z,7.20
2018-02-23T09:52:31.530Z,6.40
2018-02-23T09:53:31.498Z,6.80
2018-02-23T09:54:31.471Z,6.40
2018-02-23T09:55:31.443Z,6.60
2018-02-23T09:56:31.415Z,7.60
2018-02-23T09:57:31.401Z,6.80
2018-02-23T09:58:31.357Z,7.10
2018-02-23T09:59:31.339Z,6.80
2018-02-23T10:00:31.299Z,6.60
2018-02-23T10:01:31.270Z,6.40
2018-02-23T10:02:31.242Z,7.50
2018-02-23T10:03:31.213Z,6.40
2018-02-23T10:04:31.198Z,6.70
2018-02-23T10:05:31.159Z,6.60
2018-02-23T10:06:31.129Z,7.20
2018-02-23T10:07:31.104Z,6.80
2018-02-23T10:08:31.071Z,6.60
2018-02-23T10:09:31.054Z,7.40
2018-02-23T10:10:31.020Z,7.80
2018-02-23T10:11:30.987Z,7.70
2018-02-23T10:12:30.970Z,7.50
2018-02-23T10:13:30.932Z,7.30
2018-02-23T10:14:30.912Z,7.70
2018-02-23T10:15:30.878Z,7.40
2018-02-23T10:16:30.848Z,6.60
2018-02-23T10:17:30.819Z,7.40
2018-02-23T10:18:30.797Z,7.40
2018-02-23T10:19:30.767Z,7.60
2018-02-23T10:20:30.735Z,7.40
2018-02-23T10:21:30.706Z,7.20
2018-02-23T10:22:30.681Z,7.30
2018-02-23T10:23:30.657Z,7.20
2018-02-23T10:24:30.625Z,8.10
2018-02-23T10:25:30.596Z,7.00
2018-02-23T10:26:30.581Z,7.20
2018-02-23T10:27:30.544Z,7.70
2018-02-23T10:28:30.516Z,7.60
2018-02-23T10:29:30.487Z,7.10
2018-02-23T10:30:30.462Z,7.80
2018-02-23T10:31:30.438Z,7.90
2018-02-23T10:32:30.416Z,7.80
2018-02-23T10:33:30.383Z,8.40
2018-02-23T10:34:30.394Z,7.70
2018-02-23T10:35:30.331Z,8.10
2018-02-23T10:36:30.306Z,7.80
2018-02-23T10:37:30.282Z,7.00
2018-02-23T10:38:30.253Z,7.90
2018-02-23T10:39:30.245Z,7.70
2018-02-23T10:40:30.202Z,8.30
2018-02-23T10:41:30.179Z,7.60
2018-02-23T10:42:30.155Z,8.00
2018-02-23T10:43:30.129Z,7.80
2018-02-23T10:44:30.100Z,8.40
2018-02-23T10:45:30.080Z,8.70
2018-02-23T10:46:30.056Z,9.10
2018-02-23T10:47:30.037Z,8.60
2018-02-23T10:48:30.004Z,9.00
2018-02-23T10:49:29.986Z,8.10
2018-02-23T10:50:29.954Z,7.50
2018-02-23T10:51:29.929Z,7.70
2018-02-23T10:52:29.905Z,7.60
2018-02-23T10:53:29.881Z,8.00
2018-02-23T10:54:29.860Z,8.60
2018-02-23T10:55:29.838Z,8.90
2018-02-23T10:56:29.811Z,8.40
2018-02-23T10:57:29.783Z,7.70
2018-02-23T10:58:29.767Z,8.70
2018-02-23T10:59:29.740Z,8.10
2018-02-23T11:00:29.716Z,8.10
2018-02-23T11:01:29.690Z,8.50
2018-02-23T11:02:29.667Z,8.30
2018-02-23T11:03:29.641Z,8.60
2018-02-23T11:04:29.619Z,8.90
2018-02-23T11:05:29.594Z,8.40
2018-02-23T11:06:29.570Z,9.50
2018-02-23T11:07:29.549Z,8.20
2018-02-23T11:08:29.535Z,9.00
2018-02-23T11:09:29.503Z,8.90
2018-02-23T11:10:29.479Z,8.60
2018-02-23T11:11:29.456Z,8.90
2018-02-23T11:12:29.479Z,9.10
2018-02-23T11:13:29.407Z,8.10
2018-02-23T11:14:29.379Z,8.60
2018-02-23T11:15:29.357Z,8.30
2018-02-23T11:16:29.331Z,8.70
2018-02-23T11:17:29.318Z,7.90
2018-02-23T11:18:29.290Z,8.10
2018-02-23T11:19:29.268Z,8.20
2018-02-23T11:20:29.241Z,8.30
2018-02-23T11:21:29.217Z,8.90
2018-02-23T11:22:29.196Z,9.60
2018-02-23T11:23:29.171Z,8.70
2018-02-23T11:24:29.144Z,8.60
2018-02-23T11:25:29.125Z,8.90
2018-02-23T11:26:29.101Z,9.30
2018-02-23T11:27:29.083Z,8.50
2018-02-23T11:28:29.057Z,8.50
2018-02-23T11:29:29.035Z,8.30
2018-02-23T11:30:29.059Z,9.20
2018-02-23T11:31:29.002Z,9.10
2018-02-23T11:32:28.962Z,9.60
2018-02-23T11:33:28.940Z,8.60
2018-02-23T11:34:28.917Z,9.60
2018-02-23T11:35:28.894Z,9.10
2018-02-23T11:36:28.870Z,9.50
2018-02-23T11:37:28.848Z,8.50
2018-02-23T11:38:28.823Z,8.50
2018-02-23T11:39:28.806Z,8.10
2018-02-23T11:40:28.782Z,8.80
2018-02-23T11:41:28.755Z,8.60
2018-02-23T11:42:28.733Z,8.40
2018-02-23T11:43:28.713Z,8.70
2018-02-23T11:44:28.688Z,8.70
2018-02-23T11:45:28.670Z,9.30
2018-02-23T11:46:28.641Z,8.90
2018-02-23T11:47:28.620Z,8.50
2018-02-23T11:48:28.606Z,8.40
2018-02-23T11:49:28.573Z,8.70
2018-02-23T11:50:28.581Z,8.40
2018-02-23T11:51:28.532Z,8.60
2018-02-23T11:52:28.504Z,9.10
2018-02-23T11:53:28.485Z,8.30
2018-02-23T11:54:28.459Z,8.40
2018-02-23T11:55:28.438Z,8.80
2018-02-23T11:56:28.415Z,9.30
2018-02-23T11:57:28.404Z,9.50
2018-02-23T11:58:28.369Z,9.00
2018-02-23T11:59:28.349Z,8.70
2018-02-23T12:00:28.321Z,9.70
2018-02-23T12:01:28.303Z,9.40
2018-02-23T12:02:28.280Z,8.50
2018-02-23T12:03:28.257Z,8.40
2018-02-23T12:04:28.232Z,8.00
2018-02-23T12:05:28.210Z,9.10
2018-02-23T12:06:28.199Z,8.70
2018-02-23T12:07:28.163Z,8.20
2018-02-23T12:08:28.140Z,8.50
2018-02-23T12:09:28.118Z,9.70
2018-02-23T12:10:28.098Z,10.00
2018-02-23T12:11:28.073Z,8.90
2018-02-23T12:12:28.051Z,8.20
2018-02-23T12:13:28.026Z,8.70
2018-02-23T12:14:28.004Z,9.30
2018-02-23T12:15:27.984Z,8.80
2018-02-23T12:16:27.955Z,9.20
2018-02-23T12:17:27.943Z,8.20
2018-02-23T12:18:28.215Z,9.30
2018-02-23T12:19:27.892Z,8.30
2018-02-23T12:20:27.862Z,8.50
2018-02-23T12:21:27.877Z,9.20
2018-02-23T12:22:27.818Z,9.40
2018-02-23T12:23:28.700Z,10.00
2018-02-23T12:24:27.770Z,9.50
2018-02-23T12:25:27.750Z,9.20
2018-02-23T12:26:27.724Z,9.20
2018-02-23T12:27:27.701Z,9.70
2018-02-23T12:28:27.706Z,9.40
2018-02-23T12:29:27.658Z,9.50
2018-02-23T12:30:27.937Z,8.70
2018-02-23T12:31:27.623Z,8.70
2018-02-23T12:32:27.590Z,8.80
2018-02-23T12:33:27.569Z,8.90
2018-02-23T12:34:27.547Z,9.00
2018-02-23T12:35:27.586Z,9.30
2018-02-23T12:36:27.504Z,8.70
2018-02-23T12:37:27.476Z,9.10
2018-02-23T12:38:27.455Z,9.10
2018-02-23T12:39:27.438Z,9.30
2018-02-23T12:40:27.411Z,8.90
2018-02-23T12:41:27.387Z,9.30
2018-02-23T12:42:27.368Z,8.60
2018-02-23T12:43:27.353Z,10.20
2018-02-23T12:44:27.318Z,9.20
2018-02-23T12:45:27.300Z,10.30
2018-02-23T12:46:27.273Z,8.90
2018-02-23T12:47:27.250Z,9.50
2018-02-23T12:48:27.228Z,9.70
2018-02-23T12:49:27.198Z,9.20
2018-02-23T12:50:27.185Z,9.30
2018-02-23T12:51:27.150Z,9.10
2018-02-23T12:52:27.116Z,9.90
2018-02-23T12:53:27.086Z,9.40
2018-02-23T12:54:27.058Z,9.60
2018-02-23T12:55:27.028Z,10.10
2018-02-23T12:56:26.993Z,9.90
2018-02-23T12:57:26.967Z,9.30
2018-02-23T12:58:26.934Z,9.70
2018-02-23T12:59:26.916Z,9.50
2018-02-23T13:00:26.876Z,8.90
2018-02-23T13:01:26.853Z,10.30